createdAt,value
2023-04-24T00:00:18.950Z,96222.38
2023-04-24T00:02:21.665Z,96220.94
2023-04-24T00:04:27.162Z,96220.41
2023-04-24T00:06:34.015Z,96217.16
2023-04-24T00:08:36.858Z,96228.69
2023-04-24T00:10:40.839Z,96229.00
2023-04-24T00:12:43.465Z,96230.03
2023-04-24T00:14:45.996Z,96243.38
2023-04-24T00:16:48.599Z,96241.25
2023-04-24T00:18:53.537Z,96241.56
2023-04-24T00:20:56.129Z,96242.31
2023-04-24T00:22:58.700Z,96240.75
2023-04-24T00:25:01.364Z,96226.69
2023-04-24T00:27:05.351Z,96222.72
2023-04-24T00:29:07.896Z,96227.84
2023-04-24T00:31:10.525Z,96229.31
2023-04-24T00:33:13.071Z,96226.34
2023-04-24T00:35:15.934Z,96225.03
2023-04-24T00:37:18.485Z,96217.59
2023-04-24T00:39:21.130Z,96223.97
2023-04-24T00:41:24.053Z,96228.28
2023-04-24T00:43:28.021Z,96235.50
2023-04-24T00:45:32.227Z,96230.16
2023-04-24T00:47:35.224Z,96228.28
2023-04-24T00:49:37.833Z,96223.97
2023-04-24T00:51:41.640Z,96224.72
2023-04-24T00:53:44.200Z,96225.50
2023-04-24T00:55:46.905Z,96221.22
2023-04-24T00:57:50.607Z,96217.16
2023-04-24T00:59:55.234Z,96215.63
2023-04-24T01:01:58.332Z,96217.38
2023-04-24T01:04:01.451Z,96212.34
2023-04-24T01:06:05.748Z,96212.25
2023-04-24T01:08:08.546Z,96204.28
2023-04-24T01:10:11.979Z,96199.59
2023-04-24T01:12:14.557Z,96194.13
2023-04-24T01:14:17.201Z,96202.63
2023-04-24T01:16:22.046Z,96207.34
2023-04-24T01:18:24.714Z,96208.41
2023-04-24T01:20:28.120Z,96218.41
2023-04-24T01:22:32.056Z,96225.00
2023-04-24T01:24:34.588Z,96224.31
2023-04-24T01:26:37.142Z,96214.53
2023-04-24T01:28:40.184Z,96217.50
2023-04-24T01:30:43.500Z,96205.22
2023-04-24T01:32:47.272Z,96202.91
2023-04-24T01:34:50.785Z,96193.19
2023-04-24T01:36:53.373Z,96194.31
2023-04-24T01:38:57.324Z,96187.94
2023-04-24T01:41:00.074Z,96188.13
2023-04-24T01:43:03.394Z,96182.78
2023-04-24T01:45:07.357Z,96182.88
2023-04-24T01:47:10.030Z,96183.16
2023-04-24T01:49:12.936Z,96177.28
2023-04-24T01:51:15.547Z,96174.34
2023-04-24T01:53:18.157Z,96181.34
2023-04-24T01:55:22.057Z,96186.66
2023-04-24T01:57:25.086Z,96184.16
2023-04-24T01:59:29.812Z,96185.94
2023-04-24T02:01:36.956Z,96185.28
2023-04-24T02:03:39.586Z,96189.78
2023-04-24T02:05:42.262Z,96188.75
2023-04-24T02:07:47.704Z,96192.13
2023-04-24T02:09:50.439Z,96191.59
2023-04-24T02:11:54.348Z,96196.28
2023-04-24T02:13:56.865Z,96196.91
2023-04-24T02:16:00.349Z,96196.16
2023-04-24T02:18:02.956Z,96193.81
2023-04-24T02:20:06.613Z,96200.84
2023-04-24T02:22:09.154Z,96200.09
2023-04-24T02:24:11.717Z,96201.75
2023-04-24T02:26:14.404Z,96204.28
2023-04-24T02:28:18.270Z,96204.28
2023-04-24T02:30:20.950Z,96200.19
2023-04-24T02:32:23.544Z,96197.47
2023-04-24T02:34:26.300Z,96198.22
2023-04-24T02:36:28.848Z,96197.06
2023-04-24T02:38:31.590Z,96190.94
2023-04-24T02:40:34.330Z,96186.63
2023-04-24T02:42:36.889Z,96185.91
2023-04-24T02:44:41.184Z,96188.84
2023-04-24T02:46:43.740Z,96181.31
2023-04-24T02:48:46.280Z,96184.84
2023-04-24T02:50:52.419Z,96191.13
2023-04-24T02:52:54.954Z,96195.78
2023-04-24T02:54:57.529Z,96194.13
2023-04-24T02:57:00.138Z,96193.91
2023-04-24T02:59:02.654Z,96187.41
2023-04-24T03:01:07.052Z,96191.06
2023-04-24T03:03:09.850Z,96183.59
2023-04-24T03:05:12.922Z,96184.53
2023-04-24T03:07:16.243Z,96183.69
2023-04-24T03:09:18.768Z,96190.78
2023-04-24T03:11:21.434Z,96189.03
2023-04-24T03:13:23.955Z,96195.84
2023-04-24T03:15:26.505Z,96196.66
2023-04-24T03:17:30.422Z,96207.06
2023-04-24T03:19:33.037Z,96203.50
2023-04-24T03:21:36.694Z,96200.03
2023-04-24T03:23:39.245Z,96196.50
2023-04-24T03:25:41.799Z,96194.53
2023-04-24T03:27:44.313Z,96196.75
2023-04-24T03:29:46.866Z,96193.38
2023-04-24T03:31:49.486Z,96185.09
2023-04-24T03:33:53.390Z,96175.09
2023-04-24T03:35:55.894Z,96170.81
2023-04-24T03:37:58.420Z,96181.81
2023-04-24T03:40:00.985Z,96182.03
2023-04-24T03:42:03.992Z,96179.06
2023-04-24T03:44:06.651Z,96179.97
2023-04-24T03:46:10.338Z,96164.94
2023-04-24T03:48:13.041Z,96175.19
2023-04-24T03:50:16.920Z,96171.69
2023-04-24T03:52:19.466Z,96176.28
2023-04-24T03:54:22.072Z,96176.53
2023-04-24T03:56:24.696Z,96168.03
2023-04-24T03:58:27.217Z,96170.28
2023-04-24T04:00:29.777Z,96167.88
2023-04-24T04:02:32.452Z,96168.78
2023-04-24T04:04:35.243Z,96169.38
2023-04-24T04:06:39.273Z,96160.59
2023-04-24T04:08:41.810Z,96170.09
2023-04-24T04:10:44.350Z,96168.03
2023-04-24T04:12:46.874Z,96174.31
2023-04-24T04:14:49.388Z,96188.13
2023-04-24T04:16:54.661Z,96190.84
2023-04-24T04:18:57.576Z,96197.94
2023-04-24T04:21:02.089Z,96206.06
2023-04-24T04:23:05.991Z,96201.78
2023-04-24T04:25:09.313Z,96201.97
2023-04-24T04:27:12.068Z,96204.47
2023-04-24T04:29:15.185Z,96199.16
2023-04-24T04:31:18.896Z,96205.03
2023-04-24T04:33:21.588Z,96208.41
2023-04-24T04:35:24.178Z,96209.34
2023-04-24T04:37:26.973Z,96207.44
2023-04-24T04:39:31.551Z,96212.97
2023-04-24T04:41:35.936Z,96217.44
2023-04-24T04:43:40.543Z,96214.84
2023-04-24T04:45:44.164Z,96232.94
2023-04-24T04:47:46.764Z,96247.78
2023-04-24T04:49:49.778Z,96267.84
2023-04-24T04:51:52.789Z,96282.78
2023-04-24T04:53:55.724Z,96274.75
2023-04-24T04:56:00.531Z,96274.56
2023-04-24T04:58:03.132Z,96284.00
2023-04-24T05:00:07.982Z,96285.22
2023-04-24T05:02:10.675Z,96274.56
2023-04-24T05:04:13.331Z,96274.84
2023-04-24T05:06:16.077Z,96276.44
2023-04-24T05:08:26.540Z,96286.34
2023-04-24T05:10:31.552Z,96300.44
2023-04-24T05:12:35.456Z,96299.81
2023-04-24T05:14:38.008Z,96301.72
2023-04-24T05:16:40.975Z,96299.88
2023-04-24T05:18:43.549Z,96307.25
2023-04-24T05:20:46.100Z,96302.78
2023-04-24T05:22:48.655Z,96307.34
2023-04-24T05:24:51.179Z,96312.88
2023-04-24T05:26:53.757Z,96320.34
2023-04-24T05:28:58.925Z,96328.00
2023-04-24T05:31:02.094Z,96332.38
2023-04-24T05:33:04.731Z,96348.03
2023-04-24T05:35:07.949Z,96349.06
2023-04-24T05:37:10.977Z,96364.84
2023-04-24T05:39:13.541Z,96369.25
2023-04-24T05:41:16.102Z,96365.28
2023-04-24T05:43:18.676Z,96357.28
2023-04-24T05:45:22.560Z,96351.94
2023-04-24T05:47:25.129Z,96347.34
2023-04-24T05:49:27.731Z,96352.38
2023-04-24T05:51:32.580Z,96356.06
2023-04-24T05:53:35.144Z,96368.63
2023-04-24T05:55:37.990Z,96371.50
2023-04-24T05:57:40.638Z,96377.72
2023-04-24T05:59:43.511Z,96369.09
2023-04-24T06:01:47.693Z,96376.38
2023-04-24T06:03:50.564Z,96378.84
2023-04-24T06:05:53.215Z,96377.91
2023-04-24T06:07:55.823Z,96380.06
2023-04-24T06:09:58.657Z,96378.16
2023-04-24T06:12:01.373Z,96380.56
2023-04-24T06:14:03.923Z,96380.78
2023-04-24T06:16:07.281Z,96369.44
2023-04-24T06:18:12.051Z,96377.38
2023-04-24T06:20:14.733Z,96378.38
2023-04-24T06:22:17.286Z,96381.59
2023-04-24T06:24:19.835Z,96379.06
2023-04-24T06:26:23.080Z,96375.06
2023-04-24T06:28:25.620Z,96372.56
2023-04-24T06:30:28.857Z,96371.03
2023-04-24T06:32:31.782Z,96366.16
2023-04-24T06:34:36.476Z,96363.56
2023-04-24T06:36:39.429Z,96365.91
2023-04-24T06:38:41.965Z,96367.63
2023-04-24T06:40:44.512Z,96368.81
2023-04-24T06:42:47.046Z,96380.94
2023-04-24T06:44:49.710Z,96373.44
2023-04-24T06:46:52.360Z,96373.75
2023-04-24T06:48:56.570Z,96384.63
2023-04-24T06:51:00.459Z,96372.63
2023-04-24T06:53:03.150Z,96367.31
2023-04-24T06:55:06.744Z,96363.75
2023-04-24T06:57:11.437Z,96369.13
2023-04-24T06:59:13.993Z,96370.72
2023-04-24T07:01:16.658Z,96376.78
2023-04-24T07:03:19.393Z,96376.13
2023-04-24T07:05:22.086Z,96382.56
2023-04-24T07:07:25.980Z,96383.50
2023-04-24T07:09:28.945Z,96387.91
2023-04-24T07:11:31.502Z,96386.78
2023-04-24T07:13:36.290Z,96394.63
2023-04-24T07:15:38.899Z,96382.66
2023-04-24T07:17:44.468Z,96384.50
2023-04-24T07:19:47.145Z,96390.69
2023-04-24T07:21:49.691Z,96388.09
2023-04-24T07:23:53.834Z,96386.91
2023-04-24T07:25:56.422Z,96386.72
2023-04-24T07:27:59.170Z,96399.78
2023-04-24T07:30:01.954Z,96389.41
2023-04-24T07:32:04.823Z,96402.44
2023-04-24T07:34:07.405Z,96402.13
2023-04-24T07:36:16.217Z,96404.75
2023-04-24T07:38:21.458Z,96420.81
2023-04-24T07:40:25.388Z,96425.41
2023-04-24T07:42:27.956Z,96433.69
2023-04-24T07:44:30.499Z,96437.00
2023-04-24T07:46:33.478Z,96447.28
2023-04-24T07:48:36.221Z,96437.97
2023-04-24T07:50:38.786Z,96453.94
2023-04-24T07:52:41.431Z,96455.69
2023-04-24T07:54:44.929Z,96448.78
2023-04-24T07:56:50.680Z,96449.13
2023-04-24T07:58:53.222Z,96450.34
2023-04-24T08:00:55.898Z,96461.81
2023-04-24T08:02:58.590Z,96454.31
2023-04-24T08:05:01.332Z,96471.75
2023-04-24T08:07:03.889Z,96462.00
2023-04-24T08:09:06.612Z,96475.06
2023-04-24T08:11:09.197Z,96469.13
2023-04-24T08:13:13.408Z,96465.28
2023-04-24T08:15:15.934Z,96483.78
2023-04-24T08:17:18.569Z,96488.09
2023-04-24T08:19:21.113Z,96492.56
2023-04-24T08:21:24.264Z,96490.41
2023-04-24T08:23:26.828Z,96473.31
2023-04-24T08:25:29.369Z,96487.84
2023-04-24T08:27:31.906Z,96503.88
2023-04-24T08:29:35.858Z,96503.22
2023-04-24T08:31:38.494Z,96492.59
2023-04-24T08:33:41.966Z,96505.28
2023-04-24T08:35:44.506Z,96503.03
2023-04-24T08:37:47.083Z,96506.00
2023-04-24T08:39:49.660Z,96504.47
2023-04-24T08:41:54.039Z,96500.06
2023-04-24T08:43:59.032Z,96507.44
2023-04-24T08:46:06.066Z,96499.25
2023-04-24T08:48:23.415Z,96498.75
2023-04-24T08:50:34.341Z,96498.41
2023-04-24T08:52:37.537Z,96486.94
2023-04-24T08:54:40.951Z,96495.53
2023-04-24T08:56:46.704Z,96499.16
2023-04-24T08:58:49.869Z,96500.25
2023-04-24T09:00:52.630Z,96502.28
2023-04-24T09:02:57.845Z,96517.66
2023-04-24T09:05:00.962Z,96495.13
2023-04-24T09:07:04.652Z,96496.06
2023-04-24T09:09:07.509Z,96492.75
2023-04-24T09:11:11.100Z,96501.06
2023-04-24T09:13:13.734Z,96490.13
2023-04-24T09:15:16.333Z,96494.91
2023-04-24T09:17:19.109Z,96482.88
2023-04-24T09:19:23.469Z,96487.00
2023-04-24T09:21:26.017Z,96494.19
2023-04-24T09:23:30.440Z,96502.31
2023-04-24T09:25:34.135Z,96514.00
2023-04-24T09:27:37.487Z,96500.00
2023-04-24T09:29:40.063Z,96516.53
2023-04-24T09:31:42.671Z,96537.06
2023-04-24T09:33:56.326Z,96516.72
2023-04-24T09:36:00.386Z,96518.97
2023-04-24T09:38:02.924Z,96537.84
2023-04-24T09:40:13.617Z,96524.81
2023-04-24T09:42:16.190Z,96529.28
2023-04-24T09:44:21.790Z,96526.34
2023-04-24T09:46:32.220Z,96543.41
2023-04-24T09:48:37.071Z,96545.03
2023-04-24T09:50:39.647Z,96542.84
2023-04-24T09:52:45.458Z,96539.38
2023-04-24T09:54:54.878Z,96542.94
2023-04-24T09:56:57.882Z,96542.94
2023-04-24T09:59:07.131Z,96541.41
2023-04-24T10:01:09.822Z,96542.50
2023-04-24T10:03:12.666Z,96550.88
2023-04-24T10:05:15.504Z,96554.22
2023-04-24T10:07:18.259Z,96548.72
2023-04-24T10:09:23.996Z,96543.78
2023-04-24T10:11:28.368Z,96553.66
2023-04-24T10:13:31.172Z,96545.25
2023-04-24T10:15:34.091Z,96543.81
2023-04-24T10:17:37.499Z,96550.44
2023-04-24T10:19:42.799Z,96552.44
2023-04-24T10:21:47.588Z,96547.78
2023-04-24T10:23:51.076Z,96550.19
2023-04-24T10:25:56.592Z,96552.97
2023-04-24T10:28:00.854Z,96556.16
2023-04-24T10:30:04.877Z,96553.78
2023-04-24T10:32:10.620Z,96559.72
2023-04-24T10:34:13.526Z,96550.88
2023-04-24T10:36:17.732Z,96556.53
2023-04-24T10:38:26.269Z,96553.47
2023-04-24T10:40:33.287Z,96555.69
2023-04-24T10:42:37.419Z,96562.81
2023-04-24T10:44:42.045Z,96557.28
2023-04-24T10:46:45.841Z,96565.13
2023-04-24T10:48:54.916Z,96572.41
2023-04-24T10:50:57.482Z,96575.50
2023-04-24T10:53:08.396Z,96584.69
2023-04-24T10:55:11.062Z,96573.84
2023-04-24T10:57:31.718Z,96602.94
2023-04-24T10:59:38.588Z,96591.16
2023-04-24T11:01:41.121Z,96595.59
2023-04-24T11:03:56.065Z,96591.19
2023-04-24T11:06:01.154Z,96603.72
2023-04-24T11:08:13.911Z,96605.34
2023-04-24T11:10:27.576Z,96607.75
2023-04-24T11:12:30.166Z,96608.38
2023-04-24T11:14:52.736Z,96608.03
2023-04-24T11:16:57.143Z,96614.47
2023-04-24T11:19:03.353Z,96616.47
2023-04-24T11:21:12.607Z,96626.25
2023-04-24T11:23:15.991Z,96612.41
2023-04-24T11:25:18.516Z,96628.75
2023-04-24T11:27:22.309Z,96625.84
2023-04-24T11:29:39.761Z,96629.91
2023-04-24T11:31:43.137Z,96617.19
2023-04-24T11:33:47.109Z,96626.00
2023-04-24T11:35:49.697Z,96628.97
2023-04-24T11:38:12.942Z,96625.84
2023-04-24T11:40:18.528Z,96630.78
2023-04-24T11:42:23.231Z,96639.03
2023-04-24T11:44:27.134Z,96631.31
2023-04-24T11:46:31.195Z,96638.31
2023-04-24T11:48:37.165Z,96635.94
2023-04-24T11:50:41.177Z,96644.25
2023-04-24T11:52:45.731Z,96638.53
2023-04-24T11:54:52.259Z,96652.34
2023-04-24T11:56:58.097Z,96654.13
2023-04-24T11:59:00.659Z,96637.03
2023-04-24T12:01:05.915Z,96659.25
2023-04-24T12:03:09.776Z,96656.97
2023-04-24T12:05:21.638Z,96663.34
2023-04-24T12:07:26.428Z,96656.09
2023-04-24T12:09:28.994Z,96671.28
2023-04-24T12:11:31.584Z,96664.38
2023-04-24T12:13:34.134Z,96667.81
2023-04-24T12:15:36.726Z,96665.81
2023-04-24T12:17:43.951Z,96666.09
2023-04-24T12:19:50.194Z,96664.34
2023-04-24T12:22:03.093Z,96672.00
2023-04-24T12:24:09.535Z,96674.31
2023-04-24T12:26:12.098Z,96692.38
2023-04-24T12:28:15.148Z,96685.03
2023-04-24T12:30:18.646Z,96684.03
2023-04-24T12:32:21.480Z,96685.88
2023-04-24T12:34:26.075Z,96691.53
2023-04-24T12:36:28.802Z,96680.25
2023-04-24T12:38:31.846Z,96695.09
2023-04-24T12:40:36.194Z,96675.63
2023-04-24T12:42:44.684Z,96682.00
2023-04-24T12:44:49.217Z,96686.56
2023-04-24T12:46:51.843Z,96693.75
2023-04-24T12:48:54.441Z,96682.13
2023-04-24T12:50:57.503Z,96676.03
2023-04-24T12:53:00.109Z,96681.97
2023-04-24T12:55:02.834Z,96680.09
2023-04-24T12:57:06.708Z,96671.81
2023-04-24T12:59:09.234Z,96671.75
2023-04-24T13:01:12.323Z,96672.44
2023-04-24T13:03:18.061Z,96668.09
2023-04-24T13:05:21.149Z,96679.00
2023-04-24T13:07:24.658Z,96672.13
2023-04-24T13:09:27.271Z,96667.47
2023-04-24T13:11:29.869Z,96663.09
2023-04-24T13:13:33.745Z,96655.81
2023-04-24T13:15:36.605Z,96650.50
2023-04-24T13:17:39.328Z,96658.09
2023-04-24T13:19:43.366Z,96657.97
2023-04-24T13:21:46.098Z,96652.75
2023-04-24T13:23:48.649Z,96655.31
2023-04-24T13:25:51.267Z,96663.88
2023-04-24T13:27:53.876Z,96663.19
2023-04-24T13:29:57.763Z,96661.53
2023-04-24T13:32:00.495Z,96653.09
2023-04-24T13:34:04.012Z,96658.19
2023-04-24T13:36:06.675Z,96665.91
2023-04-24T13:38:14.088Z,96658.09
2023-04-24T13:40:16.667Z,96654.31
2023-04-24T13:42:19.854Z,96662.22
2023-04-24T13:44:23.434Z,96652.72
2023-04-24T13:46:27.459Z,96648.38
2023-04-24T13:48:30.285Z,96649.97
2023-04-24T13:50:32.828Z,96655.97
2023-04-24T13:52:35.457Z,96645.56
2023-04-24T13:54:38.020Z,96651.47
2023-04-24T13:56:41.084Z,96638.53
2023-04-24T13:58:46.354Z,96640.25
2023-04-24T14:00:49.018Z,96644.63
2023-04-24T14:02:53.009Z,96647.91
2023-04-24T14:04:55.764Z,96639.03
2023-04-24T14:06:58.404Z,96651.38
2023-04-24T14:09:01.531Z,96645.03
2023-04-24T14:11:04.695Z,96645.75
2023-04-24T14:13:07.891Z,96637.56
2023-04-24T14:15:11.285Z,96641.94
2023-04-24T14:17:13.821Z,96641.66
2023-04-24T14:19:17.719Z,96637.63
2023-04-24T14:21:20.353Z,96640.97
2023-04-24T14:23:22.983Z,96647.09
2023-04-24T14:25:25.506Z,96645.25
2023-04-24T14:27:28.287Z,96643.50
2023-04-24T14:29:31.004Z,96651.88
2023-04-24T14:31:33.612Z,96654.06
2023-04-24T14:33:36.257Z,96655.81
2023-04-24T14:35:40.647Z,96657.59
2023-04-24T14:37:43.673Z,96662.03
2023-04-24T14:39:56.279Z,96649.97
2023-04-24T14:42:09.102Z,96651.69
2023-04-24T14:44:11.871Z,96653.13
2023-04-24T14:46:15.726Z,96652.88
2023-04-24T14:48:18.693Z,96640.69
2023-04-24T14:50:24.326Z,96655.41
2023-04-24T14:52:28.573Z,96647.34
2023-04-24T14:54:31.670Z,96652.06
2023-04-24T14:56:34.436Z,96653.59
2023-04-24T14:58:37.073Z,96652.88
2023-04-24T15:00:39.747Z,96654.41
2023-04-24T15:02:45.371Z,96654.09
2023-04-24T15:04:48.247Z,96648.59
2023-04-24T15:06:51.559Z,96646.44
2023-04-24T15:08:55.704Z,96649.22
2023-04-24T15:10:58.313Z,96645.34
2023-04-24T15:13:01.248Z,96644.69
2023-04-24T15:15:04.158Z,96640.31
2023-04-24T15:17:06.789Z,96644.19
2023-04-24T15:19:09.694Z,96649.59
2023-04-24T15:21:14.618Z,96654.03
2023-04-24T15:23:17.158Z,96654.59
2023-04-24T15:25:21.209Z,96654.69
2023-04-24T15:27:23.765Z,96657.34
2023-04-24T15:29:27.180Z,96659.25
2023-04-24T15:31:29.860Z,96642.78
2023-04-24T15:33:32.458Z,96660.03
2023-04-24T15:35:35.441Z,96658.91
2023-04-24T15:37:38.182Z,96659.19
2023-04-24T15:39:40.751Z,96647.13
2023-04-24T15:41:44.616Z,96650.69
2023-04-24T15:43:47.378Z,96642.38
2023-04-24T15:45:51.445Z,96652.25
2023-04-24T15:47:54.066Z,96639.03
2023-04-24T15:49:56.609Z,96639.22
2023-04-24T15:51:59.170Z,96645.03
2023-04-24T15:54:03.883Z,96652.31
2023-04-24T15:56:06.851Z,96640.72
2023-04-24T15:58:11.025Z,96641.38
2023-04-24T16:00:14.690Z,96644.63
2023-04-24T16:02:19.298Z,96646.81
2023-04-24T16:04:22.342Z,96648.66
2023-04-24T16:06:26.583Z,96643.72
2023-04-24T16:08:29.116Z,96650.25
2023-04-24T16:10:31.658Z,96655.75
2023-04-24T16:12:34.644Z,96651.81
2023-04-24T16:14:38.762Z,96648.47
2023-04-24T16:16:41.318Z,96645.50
2023-04-24T16:18:43.937Z,96648.34
2023-04-24T16:20:46.839Z,96643.75
2023-04-24T16:22:52.169Z,96644.53
2023-04-24T16:24:54.759Z,96649.03
2023-04-24T16:26:57.751Z,96641.22
2023-04-24T16:29:00.327Z,96639.44
2023-04-24T16:31:04.276Z,96641.03
2023-04-24T16:33:09.044Z,96644.44
2023-04-24T16:35:11.734Z,96650.94
2023-04-24T16:37:14.767Z,96639.97
2023-04-24T16:39:17.336Z,96646.78
2023-04-24T16:41:19.852Z,96642.06
2023-04-24T16:43:22.569Z,96647.34
2023-04-24T16:45:25.124Z,96636.31
2023-04-24T16:47:29.018Z,96646.34
2023-04-24T16:49:32.708Z,96643.78
2023-04-24T16:51:35.300Z,96648.06
2023-04-24T16:53:37.912Z,96639.50
2023-04-24T16:55:40.493Z,96637.88
2023-04-24T16:57:43.048Z,96640.56
2023-04-24T16:59:45.602Z,96646.84
2023-04-24T17:01:48.305Z,96647.41
2023-04-24T17:03:52.570Z,96640.47
2023-04-24T17:05:55.524Z,96639.09
2023-04-24T17:07:58.130Z,96642.22
2023-04-24T17:10:01.042Z,96643.66
2023-04-24T17:12:03.618Z,96638.41
2023-04-24T17:14:06.325Z,96643.06
2023-04-24T17:16:08.930Z,96646.34
2023-04-24T17:18:12.123Z,96638.25
2023-04-24T17:20:22.959Z,96635.78
2023-04-24T17:22:26.216Z,96639.63
2023-04-24T17:24:28.799Z,96637.50
2023-04-24T17:26:32.352Z,96640.31
2023-04-24T17:28:35.079Z,96636.97
2023-04-24T17:30:37.705Z,96633.78
2023-04-24T17:32:40.297Z,96637.97
2023-04-24T17:34:42.905Z,96629.59
2023-04-24T17:36:46.824Z,96638.47
2023-04-24T17:38:49.701Z,96640.91
2023-04-24T17:40:53.062Z,96628.28
2023-04-24T17:42:55.705Z,96634.56
2023-04-24T17:44:58.285Z,96639.44
2023-04-24T17:47:01.525Z,96634.66
2023-04-24T17:49:04.230Z,96631.84
2023-04-24T17:51:06.836Z,96632.22
2023-04-24T17:53:11.073Z,96632.47
2023-04-24T17:55:14.537Z,96632.06
2023-04-24T17:57:17.209Z,96641.50
2023-04-24T17:59:20.178Z,96641.22
2023-04-24T18:01:24.124Z,96640.16
2023-04-24T18:03:26.851Z,96641.41
2023-04-24T18:05:29.882Z,96639.63
2023-04-24T18:07:33.960Z,96642.25
2023-04-24T18:09:37.947Z,96643.19
2023-04-24T18:11:40.507Z,96637.09
2023-04-24T18:13:43.049Z,96641.88
2023-04-24T18:15:46.684Z,96655.13
2023-04-24T18:17:49.386Z,96647.97
2023-04-24T18:19:52.024Z,96651.19
2023-04-24T18:21:54.652Z,96657.75
2023-04-24T18:24:00.212Z,96658.63
2023-04-24T18:26:04.124Z,96659.38
2023-04-24T18:28:06.685Z,96662.31
2023-04-24T18:30:13.744Z,96664.44
2023-04-24T18:32:17.155Z,96661.91
2023-04-24T18:34:19.733Z,96669.06
2023-04-24T18:36:22.639Z,96661.72
2023-04-24T18:38:25.954Z,96667.53
2023-04-24T18:40:28.549Z,96669.91
2023-04-24T18:42:32.471Z,96668.41
2023-04-24T18:44:35.220Z,96681.47
2023-04-24T18:46:41.296Z,96680.03
2023-04-24T18:48:43.967Z,96678.75
2023-04-24T18:50:46.487Z,96686.34
2023-04-24T18:52:49.128Z,96697.75
2023-04-24T18:54:52.474Z,96701.72
2023-04-24T18:56:55.024Z,96706.25
2023-04-24T18:58:58.875Z,96708.59
2023-04-24T19:01:01.591Z,96714.66
2023-04-24T19:03:04.521Z,96710.97
2023-04-24T19:05:08.484Z,96721.84
2023-04-24T19:07:11.050Z,96705.00
2023-04-24T19:09:13.651Z,96715.50
2023-04-24T19:11:17.484Z,96717.09
2023-04-24T19:13:20.576Z,96722.41
2023-04-24T19:15:24.795Z,96723.53
2023-04-24T19:17:27.469Z,96723.63
2023-04-24T19:19:31.927Z,96714.16
2023-04-24T19:21:35.172Z,96719.50
2023-04-24T19:23:39.695Z,96717.34
2023-04-24T19:25:42.346Z,96712.41
2023-04-24T19:27:45.002Z,96711.28
2023-04-24T19:29:48.137Z,96711.38
2023-04-24T19:31:54.327Z,96716.91
2023-04-24T19:33:56.948Z,96716.56
2023-04-24T19:36:00.424Z,96710.28
2023-04-24T19:38:03.074Z,96720.41
2023-04-24T19:40:06.851Z,96716.66
2023-04-24T19:42:09.390Z,96717.28
2023-04-24T19:44:12.035Z,96715.38
2023-04-24T19:46:14.725Z,96712.13
2023-04-24T19:48:18.813Z,96714.59
2023-04-24T19:50:21.461Z,96710.16
2023-04-24T19:52:23.991Z,96711.28
2023-04-24T19:54:26.622Z,96711.91
2023-04-24T19:56:29.226Z,96711.06
2023-04-24T19:58:31.900Z,96716.75
2023-04-24T20:00:35.012Z,96711.13
2023-04-24T20:02:37.710Z,96706.69
2023-04-24T20:04:41.850Z,96705.69
2023-04-24T20:06:44.663Z,96704.22
2023-04-24T20:08:47.421Z,96703.09
2023-04-24T20:10:50.784Z,96709.53
2023-04-24T20:12:53.414Z,96703.69
2023-04-24T20:14:56.011Z,96700.69
2023-04-24T20:16:58.615Z,96712.22
2023-04-24T20:19:01.161Z,96705.53
2023-04-24T20:21:05.169Z,96703.84
2023-04-24T20:23:07.774Z,96699.19
2023-04-24T20:25:12.979Z,96705.31
2023-04-24T20:27:15.692Z,96707.84
2023-04-24T20:29:18.257Z,96707.09
2023-04-24T20:31:20.883Z,96704.22
2023-04-24T20:33:23.697Z,96710.00
2023-04-24T20:35:26.271Z,96711.53
2023-04-24T20:37:30.206Z,96706.25
2023-04-24T20:39:32.723Z,96706.69
2023-04-24T20:41:35.450Z,96710.22
2023-04-24T20:43:38.113Z,96704.84
2023-04-24T20:45:40.783Z,96704.78
2023-04-24T20:47:43.384Z,96705.00
2023-04-24T20:49:45.999Z,96709.66
2023-04-24T20:51:48.532Z,96703.53
2023-04-24T20:53:52.531Z,96703.19
2023-04-24T20:55:55.066Z,96700.38
2023-04-24T20:57:57.658Z,96696.50
2023-04-24T21:00:00.347Z,96687.09
2023-04-24T21:02:03.096Z,96690.41
2023-04-24T21:04:06.009Z,96691.16
2023-04-24T21:06:08.707Z,96684.72
2023-04-24T21:08:11.308Z,96687.31
2023-04-24T21:10:15.712Z,96685.00
2023-04-24T21:12:18.251Z,96686.00
2023-04-24T21:14:20.922Z,96680.28
2023-04-24T21:16:23.518Z,96677.06
2023-04-24T21:18:26.545Z,96687.56
2023-04-24T21:20:29.128Z,96674.06
2023-04-24T21:22:31.634Z,96679.38
2023-04-24T21:24:34.201Z,96674.34
2023-04-24T21:26:38.126Z,96659.59
2023-04-24T21:28:40.690Z,96666.78
2023-04-24T21:30:43.577Z,96660.94
2023-04-24T21:32:46.188Z,96660.94
2023-04-24T21:34:48.829Z,96668.84
2023-04-24T21:36:51.339Z,96652.28
2023-04-24T21:38:53.848Z,96661.41
2023-04-24T21:40:56.427Z,96660.78
2023-04-24T21:43:00.590Z,96651.56
2023-04-24T21:45:03.148Z,96652.59
2023-04-24T21:47:05.799Z,96650.88
2023-04-24T21:49:08.355Z,96648.47
2023-04-24T21:51:11.163Z,96647.09
2023-04-24T21:53:13.738Z,96647.91
2023-04-24T21:55:16.458Z,96641.22
2023-04-24T21:57:19.395Z,96644.03
2023-04-24T21:59:23.417Z,96640.72
2023-04-24T22:01:26.045Z,96639.00
2023-04-24T22:03:29.760Z,96635.50
2023-04-24T22:05:32.435Z,96632.91
2023-04-24T22:07:36.436Z,96636.31
2023-04-24T22:09:39.070Z,96633.81
2023-04-24T22:11:41.784Z,96628.13
2023-04-24T22:13:44.455Z,96625.84
2023-04-24T22:15:48.894Z,96631.13
2023-04-24T22:17:52.612Z,96625.00
2023-04-24T22:19:55.211Z,96625.09
2023-04-24T22:21:57.914Z,96617.34
2023-04-24T22:24:00.517Z,96616.41
2023-04-24T22:26:03.090Z,96615.47
2023-04-24T22:28:05.741Z,96612.06
2023-04-24T22:30:10.864Z,96618.16
2023-04-24T22:32:14.768Z,96614.66
2023-04-24T22:34:18.440Z,96615.47
2023-04-24T22:36:21.427Z,96615.63
2023-04-24T22:38:23.953Z,96618.31
2023-04-24T22:40:26.523Z,96608.03
2023-04-24T22:42:30.308Z,96612.56
2023-04-24T22:44:33.077Z,96617.75
2023-04-24T22:46:35.748Z,96617.75
2023-04-24T22:48:40.125Z,96611.56
2023-04-24T22:50:43.007Z,96616.84
2023-04-24T22:52:45.832Z,96609.09
2023-04-24T22:54:48.354Z,96610.03
2023-04-24T22:56:52.690Z,96607.41
2023-04-24T22:58:55.318Z,96606.13
2023-04-24T23:00:57.898Z,96607.41
2023-04-24T23:03:00.591Z,96608.41
2023-04-24T23:05:04.900Z,96610.16
2023-04-24T23:07:07.434Z,96611.16
2023-04-24T23:09:10.027Z,96614.81
2023-04-24T23:11:12.858Z,96610.59
2023-04-24T23:13:15.434Z,96614.34
2023-04-24T23:15:18.064Z,96615.22
2023-04-24T23:17:20.727Z,96613.69
2023-04-24T23:19:23.293Z,96614.56
2023-04-24T23:21:27.531Z,96608.56
2023-04-24T23:23:30.395Z,96608.66
2023-04-24T23:25:33.262Z,96612.00
2023-04-24T23:27:38.503Z,96606.78
2023-04-24T23:29:41.118Z,96607.78
2023-04-24T23:31:43.674Z,96609.47
2023-04-24T23:33:46.456Z,96609.38
2023-04-24T23:35:49.311Z,96605.81
2023-04-24T23:37:53.238Z,96600.59
2023-04-24T23:39:55.853Z,96603.13
2023-04-24T23:41:59.608Z,96599.56
2023-04-24T23:44:02.176Z,96600.38
2023-04-24T23:46:04.857Z,96604.63
2023-04-24T23:48:07.488Z,96598.56
2023-04-24T23:50:11.086Z,96599.31
2023-04-24T23:52:13.636Z,96593.19
2023-04-24T23:54:17.500Z,96595.75
2023-04-24T23:56:20.067Z,96594.81
2023-04-24T23:58:22.605Z,96589.69
